Latest Weather Observations for Lucinda

IDQ60801

Issued at 11:32 pm EST Sunday 30 August 2015 (issued every 30 minutes, with the page automatically refreshed every 10 minutes)

About weather observations | Map of weather stations | Latest weather observations for QLD | Other Formats
Station Details ID: 032141 Name: LUCINDA POINT Lat: -18.52 Lon: 146.39 Height: 10.0 m
Data from the previous 72 hours. | See also: Recent months at Lucinda
Date/Time
EST
Temp
°C
App
Temp
°C
Dew
Point
Rel
Hum
%
Delta-T
°C
Wind Press
QNH
hPa
Press
MSL
hPa
Rain
since 9 am
mm
Dir
 
Spd
km/h
Gust
km/h
Spd
kts
Gust
kts
30/11:30pm 23.5 24.3 19.8 80 2.4 NNW 15 19 8 10 1015.8 1015.8 0.0
30/11:00pm 23.6 23.8 20.1 81 2.3 NNW 19 22 10 12 1015.7 1015.7 0.0
30/10:30pm 23.6 24.1 20.1 81 2.3 NNW 17 20 9 11 1015.8 1015.8 0.0
30/10:00pm 23.8 23.9 19.9 79 2.5 N 19 24 10 13 1015.6 1015.6 0.0
30/09:30pm 23.7 23.1 19.8 79 2.5 NNW 22 28 12 15 1015.4 1015.4 0.0
30/09:00pm 23.8 23.7 19.9 79 2.5 NNW 20 26 11 14 1015.2 1015.2 0.0
30/08:30pm 23.9 23.7 19.8 78 2.6 N 20 28 11 15 1015.0 1015.0 0.0
30/08:00pm 23.9 23.2 19.6 77 2.8 N 22 26 12 14 1014.8 1014.8 0.0
30/07:30pm 23.8 23.4 19.3 76 2.9 NNE 20 26 11 14 1014.4 1014.4 0.0
30/07:00pm 23.7 23.4 19.6 78 2.6 NNE 20 24 11 13 1014.0 1014.0 0.0
30/06:30pm 23.7 23.5 19.8 79 2.5 NNE 20 24 11 13 1013.5 1013.5 0.0
30/06:00pm 23.8 23.9 19.9 79 2.5 NNE 19 22 10 12 1013.4 1013.4 0.0
30/05:30pm 24.3 24.3 20.2 78 2.7 N 20 26 11 14 1013.1 1013.1 0.0
30/05:00pm 24.2 23.2 19.7 76 2.9 NNE 24 30 13 16 1013.0 1013.0 0.0
30/04:30pm 23.9 22.5 19.6 77 2.8 NE 26 28 14 15 1013.0 1013.0 0.0
30/04:00pm 23.9 22.8 19.4 76 2.9 NE 24 26 13 14 1013.0 1013.0 0.0
30/03:30pm 24.1 24.1 20.2 79 2.5 ENE 20 24 11 13 1013.2 1013.2 0.0
30/03:00pm 24.2 24.4 20.1 78 2.7 ENE 19 22 10 12 1013.5 1013.5 0.0
30/02:30pm 23.7 23.2 19.2 76 2.9 NE 20 22 11 12 1014.0 1014.0 0.0
30/02:00pm 24.0 24.1 20.3 80 2.4 NNE 20 22 11 12 1014.6 1014.6 0.0
30/01:30pm 24.4 24.7 20.3 78 2.7 NNE 19 24 10 13 1015.1 1015.1 0.0
30/01:00pm 24.0 25.0 19.5 76 2.9 NE 13 17 7 9 1015.7 1015.7 0.0
30/12:30pm 24.5 26.2 19.3 73 3.3 ENE 9 11 5 6 1016.2 1016.2 0.0
30/12:00pm 25.3 27.0 19.4 70 3.8 ESE 9 13 5 7 1016.7 1016.7 0.0
30/11:30am 25.1 27.1 19.2 70 3.8 E 7 9 4 5 1017.4 1017.4 0.0
30/11:00am 24.9 27.7 20.4 76 2.9 SSE 6 9 3 5 1017.7 1017.7 0.0
30/10:30am 23.7 25.6 19.8 79 2.5 SSW 9 11 5 6 1018.0 1018.0 0.0
30/10:00am 23.8 25.9 20.1 80 2.4 SSW 9 11 5 6 1018.2 1018.2 0.0
30/09:30am 23.1 25.4 19.9 82 2.1 WSW 7 11 4 6 1018.3 1018.3 0.0
30/09:00am 22.2 23.3 19.6 85 1.7 WSW 13 15 7 8 1018.1 1018.1 0.0
30/08:30am 22.0 23.1 19.7 87 1.5 WSW 13 15 7 8 1017.6 1017.6 0.0
30/08:00am 21.5 22.2 19.6 89 1.2 WSW 15 17 8 9 1017.3 1017.3 0.0
30/07:30am 21.1 21.7 19.4 90 1.1 WSW 15 17 8 9 1017.0 1017.0 0.0
30/07:00am 20.9 21.2 19.6 92 0.8 WSW 17 20 9 11 1016.9 1016.9 0.0
30/06:30am 20.8 20.4 19.3 91 0.9 SW 20 22 11 12 1016.4 1016.4 0.0
30/06:00am 21.3 21.3 19.8 91 1.0 SW 19 20 10 11 1016.1 1016.1 0.0
30/05:30am 21.1 21.7 19.4 90 1.1 SW 15 17 8 9 1015.7 1015.7 0.0
30/05:00am 21.0 21.4 18.9 88 1.3 WSW 15 17 8 9 1015.4 1015.4 0.0
30/04:30am 21.6 22.7 19.7 89 1.2 WSW 13 15 7 8 1015.0 1015.0 0.0
30/04:00am 21.7 23.2 19.8 89 1.2 SW 11 11 6 6 1015.1 1015.1 0.0
30/03:30am 21.7 22.8 19.6 88 1.3 WSW 13 15 7 8 1015.2 1015.2 0.0
30/03:00am 22.3 23.9 20.0 87 1.5 SW 11 20 6 11 1015.3 1015.3 0.0
30/02:30am 22.5 24.8 19.5 83 1.9 WNW 6 9 3 5 1015.3 1015.3 0.0
30/02:00am 23.1 24.5 19.5 80 2.3 NE 11 13 6 7 1015.6 1015.6 0.0
30/01:30am 23.1 24.5 19.5 80 2.3 NE 11 13 6 7 1015.9 1015.9 0.0
30/01:00am 23.1 24.0 19.3 79 2.4 NNE 13 15 7 8 1016.2 1016.2 0.0
30/12:30am 23.3 24.4 19.7 80 2.3 NE 13 15 7 8 1016.6 1016.6 0.0
30/12:00am 23.2 24.2 19.4 79 2.4 NE 13 17 7 9 1016.7 1016.7 0.0
 
Date/Time
EST
Temp
°C
App
Temp
°C
Dew
Point
Rel
Hum
%
Delta-T
°C
Wind Press
QNH
hPa
Press
MSL
hPa
Rain
since 9 am
mm
Dir
 
Spd
km/h
Gust
km/h
Spd
kts
Gust
kts
29/11:30pm 23.2 24.3 19.6 80 2.3 NNE 13 17 7 9 1016.7 1016.7 0.0
29/11:00pm 23.3 24.0 19.7 80 2.3 NNE 15 19 8 10 1016.7 1016.7 0.0
29/10:30pm 23.2 24.2 19.4 79 2.4 NNE 13 17 7 9 1017.0 1017.0 0.0
29/10:00pm 23.3 24.0 19.7 80 2.3 NNE 15 19 8 10 1016.9 1016.9 0.0
29/09:30pm 23.4 23.7 19.5 79 2.5 NNE 17 20 9 11 1016.9 1016.9 0.0
29/09:00pm 23.4 23.1 19.1 77 2.7 NE 19 20 10 11 1017.1 1017.1 0.0
29/08:30pm 23.5 23.2 19.2 77 2.7 NE 19 20 10 11 1017.0 1017.0 0.0
29/08:00pm 23.5 23.0 19.0 76 2.9 NE 20 24 11 13 1016.9 1016.9 0.0
29/07:30pm 23.4 22.9 19.1 77 2.7 NE 20 24 11 13 1016.5 1016.5 0.0
29/07:00pm 23.5 22.6 19.8 80 2.4 NE 24 28 13 15 1016.0 1016.0 0.0
29/06:30pm 23.4 23.8 19.8 80 2.3 ENE 17 20 9 11 1016.2 1016.2 0.0
29/06:00pm 23.5 24.2 19.6 79 2.5 E 15 20 8 11 1016.2 1016.2 0.0
29/05:30pm 23.8 24.9 19.7 78 2.6 ESE 13 19 7 10 1016.1 1016.1 0.0
29/05:00pm 23.9 24.4 19.2 75 3.0 E 15 19 8 10 1015.9 1015.9 0.0
29/04:30pm 24.0 24.5 19.3 75 3.0 E 15 20 8 11 1015.8 1015.8 0.0
29/04:00pm 24.1 24.4 18.7 72 3.4 E 15 19 8 10 1015.8 1015.8 0.0
29/03:30pm 24.2 24.8 18.6 71 3.5 E 13 19 7 10 1016.0 1016.0 0.0
29/03:00pm 24.4 25.5 18.8 71 3.6 E 11 15 6 8 1016.2 1016.2 0.0
29/02:30pm 24.7 26.2 18.9 70 3.7 E 9 13 5 7 1016.7 1016.7 0.0
29/02:00pm 24.5 26.3 19.6 74 3.1 NE 9 13 5 7 1017.2 1017.2 0.0
29/01:30pm 25.1 27.1 19.2 70 3.8 ENE 7 11 4 6 1017.7 1017.7 0.0
29/01:00pm 24.4 25.9 19.0 72 3.4 NE 9 13 5 7 1018.2 1018.2 0.0
29/12:30pm 25.4 27.0 19.1 68 4.0 E 9 11 5 6 1018.5 1018.5 0.0
29/12:00pm 24.8 26.0 19.0 70 3.7 E 11 15 6 8 1018.9 1018.9 0.0
29/11:30am 24.8 26.2 19.6 73 3.3 E 11 15 6 8 1019.2 1019.2 0.0
29/11:00am 25.8 28.2 20.1 71 3.7 ESE 7 9 4 5 1019.8 1019.8 0.0
29/10:30am 25.3 29.4 20.8 76 3.0 CALM 0 0 0 0 1020.2 1020.2 0.0
29/10:00am 23.1 25.6 20.2 84 1.9 SW 7 9 4 5 1020.3 1020.3 0.0
29/09:30am 22.4 24.5 20.1 87 1.5 SW 9 11 5 6 1020.2 1020.2 0.0
29/09:00am 22.0 23.5 19.7 87 1.5 SW 11 13 6 7 1019.8 1019.8 0.0
29/08:30am 21.7 23.7 20.0 90 1.1 SW 9 11 5 6 1019.7 1019.7 0.0
29/08:00am 21.4 23.0 19.9 91 1.0 SW 11 11 6 6 1019.2 1019.2 0.0
29/07:30am 21.3 22.9 19.9 92 0.9 SW 11 13 6 7 1019.0 1019.0 0.0
29/07:00am 21.2 22.3 19.7 91 1.0 SW 13 15 7 8 1018.7 1018.7 0.0
29/06:30am 21.3 22.5 19.8 91 1.0 SW 13 15 7 8 1018.3 1018.3 0.0
29/06:00am 21.3 22.5 19.8 91 1.0 SW 13 17 7 9 1017.9 1017.9 0.0
29/05:30am 21.2 22.7 19.8 92 0.9 WSW 11 13 6 7 1017.5 1017.5 0.0
29/05:00am 21.2 23.1 19.8 92 0.9 W 9 11 5 6 1017.3 1017.3 0.0
29/04:30am 21.5 23.1 20.0 91 1.0 SW 11 17 6 9 1017.1 1017.1 0.0
29/04:00am 22.8 25.2 20.1 85 1.7 S 7 9 4 5 1017.2 1017.2 0.0
29/03:30am 23.0 25.6 20.0 83 1.9 SE 6 9 3 5 1017.3 1017.3 0.0
29/03:00am 22.8 25.1 19.8 83 1.9 SE 7 11 4 6 1017.3 1017.3 0.0
29/02:30am 22.7 24.7 19.9 84 1.8 SE 9 13 5 7 1017.5 1017.5 0.0
29/02:00am 22.8 24.3 19.8 83 1.9 SE 11 15 6 8 1017.7 1017.7 0.0
29/01:30am 22.9 24.9 19.9 83 1.9 ESE 9 17 5 9 1017.9 1017.9 0.0
29/01:00am 23.0 24.2 19.8 82 2.1 ESE 13 19 7 10 1018.3 1018.3 0.0
29/12:30am 23.0 24.1 19.6 81 2.2 E 13 17 7 9 1018.7 1018.7 0.0
29/12:00am 23.3 24.1 19.9 81 2.2 ENE 15 19 8 10 1018.6 1018.6 0.0
 
Date/Time
EST
Temp
°C
App
Temp
°C
Dew
Point
Rel
Hum
%
Delta-T
°C
Wind Press
QNH
hPa
Press
MSL
hPa
Rain
since 9 am
mm
Dir
 
Spd
km/h
Gust
km/h
Spd
kts
Gust
kts
28/11:30pm 23.3 23.4 19.9 81 2.2 NE 19 20 10 11 1018.6 1018.6 0.0
28/11:00pm 23.1 22.9 19.3 79 2.4 NE 19 22 10 12 1018.7 1018.7 0.0
28/10:30pm 23.1 23.4 19.7 81 2.2 ENE 17 20 9 11 1018.9 1018.9 0.0
28/10:00pm 23.1 23.8 19.7 81 2.2 E 15 20 8 11 1019.0 1019.0 0.0
28/09:30pm 23.1 24.5 19.5 80 2.3 E 11 15 6 8 1019.0 1019.0 0.0
28/09:00pm 23.1 24.8 19.3 79 2.4 ENE 9 13 5 7 1019.0 1019.0 0.0
28/08:30pm 23.2 24.2 19.4 79 2.4 NNE 13 15 7 8 1018.8 1018.8 0.0
28/08:00pm 23.2 23.6 19.1 78 2.6 ENE 15 17 8 9 1018.8 1018.8 0.0
28/07:30pm 23.3 24.3 19.5 79 2.4 ENE 13 17 7 9 1018.5 1018.5 0.0
28/07:00pm 23.3 23.6 19.7 80 2.3 E 17 20 9 11 1018.0 1018.0 0.0
28/06:30pm 23.2 24.2 19.4 79 2.4 ESE 13 19 7 10 1017.8 1017.8 0.0
28/06:00pm 23.4 23.5 19.1 77 2.7 ESE 17 20 9 11 1017.5 1017.5 0.0
28/05:30pm 23.7 24.2 18.4 72 3.3 ESE 13 17 7 9 1017.1 1017.1 0.0
28/05:00pm 24.4 26.0 19.2 73 3.3 SE 9 17 5 9 1016.9 1016.9 0.0
28/04:30pm 24.3 26.1 19.6 75 3.0 ESE 9 15 5 8 1016.6 1016.6 0.0
28/04:00pm 24.8 26.3 19.8 74 3.2 ESE 11 19 6 10 1016.5 1016.5 0.0
28/03:30pm 24.8 26.2 19.6 73 3.3 ESE 11 19 6 10 1016.3 1016.3 0.0
28/03:00pm 24.4 25.9 19.7 75 3.0 SE 11 19 6 10 1016.3 1016.3 0.0
28/02:30pm 24.6 26.2 19.9 75 3.0 ESE 11 19 6 10 1016.5 1016.5 0.0
28/02:00pm 24.2 25.2 19.5 75 3.0 SSE 13 20 7 11 1016.8 1016.8 0.0
28/01:30pm 24.4 25.0 19.5 74 3.1 ESE 15 26 8 14 1017.1 1017.1 0.0
28/01:00pm 24.7 26.0 19.3 72 3.5 SE 11 17 6 9 1017.8 1017.8 0.0
28/12:30pm 23.5 25.2 19.4 78 2.6 S 9 13 5 7 1018.2 1018.2 0.0
28/12:00pm 23.3 23.7 19.9 81 2.2 S 17 24 9 13 1018.8 1018.8 0.0
28/11:30am 24.3 25.9 19.1 73 3.3 S 9 11 5 6 1019.2 1019.2 0.0
28/11:00am 23.7 24.4 18.8 74 3.1 S 13 19 7 10 1019.6 1019.6 0.0
28/10:30am 23.6 25.5 19.7 79 2.5 S 9 15 5 8 1019.8 1019.8 0.0
28/10:00am 22.8 24.3 19.8 83 1.9 SSW 11 13 6 7 1019.9 1019.9 0.0
28/09:30am 22.5 24.5 19.9 85 1.7 SSW 9 11 5 6 1020.0 1020.0 0.0
28/09:00am 21.8 23.6 19.5 87 1.5 SW 9 13 5 7 1020.0 1020.0 0.0
28/08:30am 21.5 22.0 19.2 87 1.5 SW 15 17 8 9 1019.8 1019.8 0.0
28/08:00am 22.3 24.1 18.7 80 2.3 SW 7 11 4 6 1019.4 1019.4 0.0
28/07:30am 23.7 24.9 19.0 75 3.0 ESE 11 17 6 9 1019.0 1019.0 0.0
28/07:00am 23.0 23.8 19.0 78 2.5 ESE 13 17 7 9 1018.7 1018.7 0.0
28/06:30am 22.7 23.3 18.7 78 2.5 ESE 13 17 7 9 1018.3 1018.3 0.0
28/06:00am 22.7 24.3 19.1 80 2.3 SE 9 15 5 8 1018.1 1018.1 0.0
28/05:30am 22.7 24.3 19.1 80 2.3 SE 9 17 5 9 1017.8 1017.8 0.0
28/05:00am 22.8 24.1 19.2 80 2.3 ESE 11 19 6 10 1017.7 1017.7 0.0
28/04:30am 22.9 23.3 19.1 79 2.4 ESE 15 20 8 11 1017.6 1017.6 0.0
28/04:00am 23.0 24.0 19.4 80 2.3 SE 13 20 7 11 1017.6 1017.6 0.0
28/03:30am 22.9 23.8 19.3 80 2.3 SE 13 20 7 11 1017.5 1017.5 0.0
28/03:00am 22.9 23.0 19.1 79 2.4 ESE 17 22 9 12 1017.5 1017.5 0.0
28/02:30am 23.0 23.2 19.4 80 2.3 ESE 17 20 9 11 1017.6 1017.6 0.0
28/02:00am 23.1 24.1 19.5 80 2.3 SE 13 20 7 11 1017.9 1017.9 0.0
28/01:30am 22.8 24.4 19.2 80 2.3 SE 9 17 5 9 1018.2 1018.2 0.0
28/01:00am 22.9 24.7 19.5 81 2.2 SE 9 19 5 10 1018.3 1018.3 0.0
28/12:30am 22.9 23.9 19.5 81 2.2 SE 13 20 7 11 1018.6 1018.6 0.0
28/12:00am 22.9 23.9 19.5 81 2.2 ESE 13 20 7 11 1018.9 1018.9 0.0

Other Formats:

Comma delimited format used in spreadsheet applications
http://www.bom.gov.au/fwo/IDQ60801/IDQ60801.94295.axf

JavaScript Object Notation format (JSON) in row-major order
http://www.bom.gov.au/fwo/IDQ60801/IDQ60801.94295.json